Time;durP1;ratioP1;P1;durP2;ratioP2;P2;SDS_P1;SDS_P2;PMS_P1;PMS_P2;Temp;Humidity;BMP_temperature;BMP_pressure;BME280_temperature;BME280_humidity;BME280_pressure;Samples;Min_cycle;Max_cycle;Signal;HPM_P1;HPM_P2
2022/10/15 00:00:53;;;;;;;6.82;5.10;;;;;;;;;;5033604;28;20421;-62
2022/10/15 00:03:19;;;;;;;10.85;5.93;;;;;;;;;;5032894;28;20029;-62
2022/10/15 00:05:45;;;;;;;8.55;5.60;;;;;;;;;;5032595;28;20052;-62
2022/10/15 00:08:12;;;;;;;7.57;5.30;;;;;;;;;;5032371;28;20029;-62
2022/10/15 00:10:38;;;;;;;12.65;5.85;;;;;;;;;;5032574;28;20025;-62
2022/10/15 00:13:05;;;;;;;9.27;5.38;;;;;;;;;;5032874;28;20091;-62
2022/10/15 00:15:31;;;;;;;11.43;5.32;;;;;;;;;;5032672;28;20037;-62
2022/10/15 00:17:58;;;;;;;9.82;5.13;;;;;;;;;;5032960;28;20025;-62
2022/10/15 00:20:24;;;;;;;10.23;5.07;;;;;;;;;;5031976;28;20025;-62
2022/10/15 00:22:50;;;;;;;6.63;4.90;;;;;;;;;;5032489;28;20029;-62
2022/10/15 00:25:16;;;;;;;9.02;6.53;;;;;;;;;;5041154;28;20033;-62
2022/10/15 00:27:42;;;;;;;10.77;7.10;;;;;;;;;;5032059;28;20505;-62
2022/10/15 00:30:08;;;;;;;10.90;7.68;;;;;;;;;;5032310;28;20072;-62
2022/10/15 00:32:35;;;;;;;14.82;8.05;;;;;;;;;;5030939;28;20021;-62
2022/10/15 00:35:04;;;;;;;11.85;7.03;;;;;;;;;;5031701;28;20112;-62
2022/10/15 00:37:30;;;;;;;12.05;6.28;;;;;;;;;;5032068;28;20037;-62
2022/10/15 00:39:56;;;;;;;12.77;5.97;;;;;;;;;;5032802;28;20521;-62
2022/10/15 00:42:22;;;;;;;8.95;6.15;;;;;;;;;;5031435;28;20021;-62
2022/10/15 00:44:53;;;;;;;11.30;6.40;;;;;;;;;;5032420;28;20022;-62
2022/10/15 00:47:28;;;;;;;11.70;6.32;;;;;;;;;;5032269;28;20035;-62
2022/10/15 00:50:07;;;;;;;9.82;5.68;;;;;;;;;;5032342;28;20106;-62
2022/10/15 00:52:42;;;;;;;9.20;6.15;;;;;;;;;;5030355;28;20053;-62
2022/10/15 00:55:11;;;;;;;10.32;5.53;;;;;;;;;;5032271;28;20166;-62
2022/10/15 00:57:38;;;;;;;8.10;5.38;;;;;;;;;;5031783;28;20099;-62
2022/10/15 01:00:08;;;;;;;9.75;5.20;;;;;;;;;;5032374;28;20033;-62
2022/10/15 01:02:34;;;;;;;15.55;5.93;;;;;;;;;;5031369;28;20116;-62
2022/10/15 01:05:00;;;;;;;10.23;5.22;;;;;;;;;;5032137;28;20040;-62
2022/10/15 01:07:26;;;;;;;9.48;5.65;;;;;;;;;;5032297;28;20478;-62
2022/10/15 01:09:53;;;;;;;8.93;5.35;;;;;;;;;;5031840;28;20116;-62
2022/10/15 01:12:27;;;;;;;16.25;5.80;;;;;;;;;;5031818;28;20120;-62
2022/10/15 01:15:16;;;;;;;7.18;5.20;;;;;;;;;;5027676;28;20029;-62
2022/10/15 01:17:56;;;;;;;12.85;5.57;;;;;;;;;;5031799;28;20165;-62
2022/10/15 01:20:47;;;;;;;12.45;5.43;;;;;;;;;;5030104;28;20026;-62
2022/10/15 01:23:33;;;;;;;8.82;5.10;;;;;;;;;;5030964;28;20131;-62
2022/10/15 01:25:59;;;;;;;12.32;5.45;;;;;;;;;;5024059;28;20036;-62
2022/10/15 01:28:35;;;;;;;10.95;5.13;;;;;;;;;;5026748;28;20105;-62
2022/10/15 01:31:03;;;;;;;8.93;5.38;;;;;;;;;;5030490;28;20116;-62
2022/10/15 01:33:32;;;;;;;9.77;4.32;;;;;;;;;;5031605;28;20046;-62
2022/10/15 01:36:01;;;;;;;12.35;5.00;;;;;;;;;;5030077;28;20112;-62
2022/10/15 01:38:34;;;;;;;15.00;4.60;;;;;;;;;;5029557;28;20405;-62
2022/10/15 01:41:06;;;;;;;9.27;4.32;;;;;;;;;;5031465;28;20069;-62
2022/10/15 01:43:36;;;;;;;7.85;4.00;;;;;;;;;;5033055;28;20429;-62
2022/10/15 01:46:29;;;;;;;5.60;2.67;;;;;;;;;;5034160;28;20164;-62
2022/10/15 01:49:08;;;;;;;4.03;2.40;;;;;;;;;;5034111;28;20061;-62
2022/10/15 01:51:36;;;;;;;4.43;2.20;;;;;;;;;;5032872;28;20060;-62
2022/10/15 01:54:05;;;;;;;6.53;2.50;;;;;;;;;;5033592;28;20067;-62
2022/10/15 01:56:32;;;;;;;3.63;2.33;;;;;;;;;;5033262;28;20029;-62
2022/10/15 01:58:58;;;;;;;3.47;2.40;;;;;;;;;;5038405;28;20025;-62
2022/10/15 02:01:25;;;;;;;3.38;2.28;;;;;;;;;;5033029;28;20045;-62
2022/10/15 02:03:52;;;;;;;3.65;2.58;;;;;;;;;;5033995;28;20036;-62
2022/10/15 02:06:24;;;;;;;4.90;2.28;;;;;;;;;;5034034;28;20116;-62
2022/10/15 02:08:57;;;;;;;9.20;2.72;;;;;;;;;;5033101;28;20030;-62
2022/10/15 02:11:23;;;;;;;3.88;2.33;;;;;;;;;;5033784;28;20517;-62
2022/10/15 02:13:56;;;;;;;3.47;2.70;;;;;;;;;;5033495;28;20030;-62
2022/10/15 02:16:30;;;;;;;4.07;2.70;;;;;;;;;;5034007;28;20120;-62
2022/10/15 02:18:57;;;;;;;6.78;3.10;;;;;;;;;;5034817;28;20033;-62
2022/10/15 02:21:31;;;;;;;6.10;3.40;;;;;;;;;;5017611;28;20379;-62
2022/10/15 02:24:03;;;;;;;6.55;3.08;;;;;;;;;;5040091;28;20079;-62
2022/10/15 02:26:30;;;;;;;4.10;2.70;;;;;;;;;;5037525;28;20485;-62
2022/10/15 02:28:57;;;;;;;5.22;2.25;;;;;;;;;;5033154;28;20057;-62
2022/10/15 02:31:24;;;;;;;6.30;2.83;;;;;;;;;;5032517;28;20025;-62
2022/10/15 02:33:52;;;;;;;4.28;2.35;;;;;;;;;;5034194;28;20028;-62
2022/10/15 02:36:19;;;;;;;2.53;1.95;;;;;;;;;;5035048;28;20026;-62
2022/10/15 02:38:45;;;;;;;3.70;1.98;;;;;;;;;;5034291;28;20021;-62
2022/10/15 02:41:12;;;;;;;4.43;2.00;;;;;;;;;;5033720;28;20033;-62
2022/10/15 02:43:39;;;;;;;3.95;1.65;;;;;;;;;;5033834;28;20417;-62
2022/10/15 02:46:07;;;;;;;4.72;1.30;;;;;;;;;;5034521;28;20443;-62
2022/10/15 02:48:33;;;;;;;1.65;1.00;;;;;;;;;;5033702;28;20458;-62
2022/10/15 02:50:59;;;;;;;3.03;1.20;;;;;;;;;;5031971;28;20038;-62
2022/10/15 02:53:25;;;;;;;2.38;1.08;;;;;;;;;;5034516;28;20022;-62
2022/10/15 02:55:51;;;;;;;3.72;1.30;;;;;;;;;;5033226;28;20034;-62
2022/10/15 02:58:18;;;;;;;2.42;0.90;;;;;;;;;;5034456;28;20033;-62
2022/10/15 03:00:44;;;;;;;2.17;1.02;;;;;;;;;;5032773;28;20033;-62
2022/10/15 03:03:12;;;;;;;1.88;0.93;;;;;;;;;;5030229;28;20030;-62
2022/10/15 03:05:38;;;;;;;3.25;1.17;;;;;;;;;;5032470;28;20033;-62
2022/10/15 03:08:04;;;;;;;4.53;0.85;;;;;;;;;;5034091;28;20036;-62
2022/10/15 03:10:31;;;;;;;3.67;1.20;;;;;;;;;;5033006;28;20124;-62
2022/10/15 03:13:02;;;;;;;1.48;1.20;;;;;;;;;;5032347;28;20034;-62
2022/10/15 03:15:33;;;;;;;2.63;1.23;;;;;;;;;;5034244;28;20116;-62
2022/10/15 03:17:59;;;;;;;2.72;1.10;;;;;;;;;;5032716;28;20036;-62
2022/10/15 03:20:25;;;;;;;3.20;1.58;;;;;;;;;;5032364;28;20128;-62
2022/10/15 03:22:51;;;;;;;4.07;1.63;;;;;;;;;;5031715;28;20029;-62
2022/10/15 03:25:17;;;;;;;2.30;1.50;;;;;;;;;;5037597;28;20104;-62
2022/10/15 03:27:44;;;;;;;3.22;1.70;;;;;;;;;;5032517;28;20029;-62
2022/10/15 03:30:22;;;;;;;4.35;2.10;;;;;;;;;;5032456;28;20426;-62
2022/10/15 03:32:49;;;;;;;7.97;1.77;;;;;;;;;;5030826;28;20429;-63
2022/10/15 03:35:15;;;;;;;4.30;2.05;;;;;;;;;;5027704;28;20022;-62
2022/10/15 03:37:42;;;;;;;4.10;2.25;;;;;;;;;;5026982;28;20033;-62
2022/10/15 03:40:09;;;;;;;3.28;2.03;;;;;;;;;;5030935;28;20473;-62
2022/10/15 03:42:35;;;;;;;8.95;2.17;;;;;;;;;;5033121;28;20028;-62
2022/10/15 03:45:02;;;;;;;3.90;2.20;;;;;;;;;;5030491;28;20056;-62
2022/10/15 03:47:28;;;;;;;5.78;1.83;;;;;;;;;;5032239;28;20544;-62
2022/10/15 03:49:56;;;;;;;5.35;2.35;;;;;;;;;;5030922;28;20030;-62
2022/10/15 03:52:23;;;;;;;8.40;2.22;;;;;;;;;;5032150;28;20017;-62
2022/10/15 03:54:52;;;;;;;7.00;2.50;;;;;;;;;;5032010;28;20029;-62
2022/10/15 03:57:19;;;;;;;3.13;1.98;;;;;;;;;;5031550;28;20040;-62
2022/10/15 03:59:51;;;;;;;4.93;2.20;;;;;;;;;;5032021;28;20029;-62
2022/10/15 04:02:20;;;;;;;4.03;1.98;;;;;;;;;;5028365;28;20021;-62
2022/10/15 04:04:46;;;;;;;4.55;2.15;;;;;;;;;;5035770;28;20156;-62
2022/10/15 04:07:12;;;;;;;3.78;2.08;;;;;;;;;;5029071;28;20048;-62
2022/10/15 04:09:39;;;;;;;3.28;2.28;;;;;;;;;;5030283;28;20018;-62
2022/10/15 04:12:27;;;;;;;6.43;2.45;;;;;;;;;;5031107;28;20110;-61
2022/10/15 04:14:53;;;;;;;4.43;1.92;;;;;;;;;;5031491;28;20044;-62
2022/10/15 04:17:19;;;;;;;3.67;2.35;;;;;;;;;;5032399;28;20044;-62
2022/10/15 04:19:45;;;;;;;3.92;2.13;;;;;;;;;;5024723;28;20029;-62
2022/10/15 04:22:13;;;;;;;5.78;2.38;;;;;;;;;;5030682;28;20109;-62
2022/10/15 04:24:50;;;;;;;3.65;2.40;;;;;;;;;;5039512;28;20030;-62
2022/10/15 04:27:25;;;;;;;7.30;1.95;;;;;;;;;;5031105;28;20119;-62
2022/10/15 04:29:51;;;;;;;5.88;3.17;;;;;;;;;;5030800;28;20080;-61
2022/10/15 04:32:18;;;;;;;7.38;2.95;;;;;;;;;;5030194;28;20049;-62
2022/10/15 04:34:45;;;;;;;3.95;2.45;;;;;;;;;;5025910;28;20044;-62
2022/10/15 04:37:13;;;;;;;5.53;2.60;;;;;;;;;;5028807;28;20048;-61
2022/10/15 04:39:39;;;;;;;4.38;2.53;;;;;;;;;;5031052;28;20053;-62
2022/10/15 04:42:09;;;;;;;3.90;2.30;;;;;;;;;;5030931;28;20087;-62
2022/10/15 04:44:35;;;;;;;6.85;3.25;;;;;;;;;;5027772;28;20068;-61
2022/10/15 04:47:02;;;;;;;5.72;2.92;;;;;;;;;;5030746;28;20346;-62
2022/10/15 04:49:40;;;;;;;9.40;2.83;;;;;;;;;;5029852;28;20033;-62
2022/10/15 04:52:19;;;;;;;8.00;2.60;;;;;;;;;;5027282;28;20029;-62
2022/10/15 04:54:52;;;;;;;;;;;;;;;;;;5029625;28;20061;-62
2022/10/15 04:57:18;;;;;;;4.88;2.65;;;;;;;;;;5030680;28;20282;-61
2022/10/15 04:59:44;;;;;;;6.18;2.72;;;;;;;;;;5029826;28;20497;-62
2022/10/15 05:02:45;;;;;;;4.13;2.50;;;;;;;;;;5030927;28;20434;-62
2022/10/15 05:05:22;;;;;;;5.40;2.88;;;;;;;;;;5028496;28;20025;-61
2022/10/15 05:07:54;;;;;;;;;;;;;;;;;;5028802;28;20034;-62
2022/10/15 05:10:21;;;;;;;4.45;2.53;;;;;;;;;;5032200;28;19924;-62
2022/10/15 05:12:51;;;;;;;6.68;3.10;;;;;;;;;;5031194;28;20068;-62
2022/10/15 05:15:25;;;;;;;5.35;2.80;;;;;;;;;;5027322;28;20091;-62
2022/10/15 05:17:51;;;;;;;8.60;2.90;;;;;;;;;;5025298;28;20046;-62
2022/10/15 05:20:17;;;;;;;6.50;2.58;;;;;;;;;;5029886;28;20109;-61
2022/10/15 05:22:45;;;;;;;8.10;2.63;;;;;;;;;;5033872;28;20047;-62
2022/10/15 05:25:12;;;;;;;5.53;2.22;;;;;;;;;;5030876;28;20072;-62
2022/10/15 05:27:40;;;;;;;6.68;2.92;;;;;;;;;;5029883;28;20029;-62
2022/10/15 05:30:06;;;;;;;4.70;3.13;;;;;;;;;;5031896;28;20025;-61
2022/10/15 05:32:52;;;;;;;5.78;3.00;;;;;;;;;;5029786;28;20033;-62
2022/10/15 05:35:20;;;;;;;5.10;2.92;;;;;;;;;;5012868;28;20470;-62
2022/10/15 05:37:54;;;;;;;6.97;2.90;;;;;;;;;;5029704;28;20104;-62
2022/10/15 05:40:22;;;;;;;8.32;2.95;;;;;;;;;;5029254;28;20029;-62
2022/10/15 05:43:00;;;;;;;11.45;3.40;;;;;;;;;;5029632;28;20057;-61
2022/10/15 05:45:26;;;;;;;5.63;2.58;;;;;;;;;;5029144;28;20404;-61
2022/10/15 05:47:57;;;;;;;7.28;2.90;;;;;;;;;;5030961;28;20014;-61
2022/10/15 05:50:23;;;;;;;7.03;2.83;;;;;;;;;;5030245;28;20049;-61
2022/10/15 05:52:53;;;;;;;4.53;2.60;;;;;;;;;;5027337;28;20079;-61
2022/10/15 05:55:40;;;;;;;9.57;3.22;;;;;;;;;;5026878;28;20129;-61
2022/10/15 05:58:06;;;;;;;10.60;2.60;;;;;;;;;;5029964;28;20409;-69
2022/10/15 06:00:32;;;;;;;5.93;3.03;;;;;;;;;;5029143;28;20029;-62
2022/10/15 06:02:59;;;;;;;6.32;2.90;;;;;;;;;;5030978;28;20481;-62
2022/10/15 06:05:25;;;;;;;9.98;2.97;;;;;;;;;;5028124;28;20359;-62
2022/10/15 06:07:51;;;;;;;7.47;2.70;;;;;;;;;;5030530;28;20049;-62
2022/10/15 06:10:17;;;;;;;3.80;2.60;;;;;;;;;;5030582;28;20034;-62
2022/10/15 06:12:47;;;;;;;4.93;2.47;;;;;;;;;;5027548;28;20021;-62
2022/10/15 06:15:14;;;;;;;7.25;2.72;;;;;;;;;;5030334;28;20381;-62
2022/10/15 06:17:40;;;;;;;6.20;2.60;;;;;;;;;;5027759;28;20109;-62
2022/10/15 06:20:06;;;;;;;9.80;3.10;;;;;;;;;;5026168;28;20049;-62
2022/10/15 06:22:33;;;;;;;4.68;2.85;;;;;;;;;;5022651;28;20036;-62
2022/10/15 06:24:59;;;;;;;8.82;3.03;;;;;;;;;;5020171;28;20030;-62
2022/10/15 06:27:25;;;;;;;9.02;2.85;;;;;;;;;;5027758;28;20052;-62
2022/10/15 06:29:51;;;;;;;8.18;3.10;;;;;;;;;;5025079;28;20049;-62
2022/10/15 06:32:17;;;;;;;6.25;3.80;;;;;;;;;;5024041;28;20017;-62
2022/10/15 06:34:43;;;;;;;12.85;3.33;;;;;;;;;;5022600;28;20033;-62
2022/10/15 06:37:09;;;;;;;7.28;2.85;;;;;;;;;;5024307;28;20040;-62
2022/10/15 06:39:36;;;;;;;7.00;2.53;;;;;;;;;;5024996;28;20509;-62
2022/10/15 06:42:02;;;;;;;3.05;2.10;;;;;;;;;;5023861;28;20102;-62
2022/10/15 06:44:37;;;;;;;5.57;2.40;;;;;;;;;;5019420;28;20056;-62
2022/10/15 06:47:03;;;;;;;3.65;2.50;;;;;;;;;;5024118;28;20064;-62
2022/10/15 06:49:29;;;;;;;5.38;2.88;;;;;;;;;;5018452;28;20037;-62
2022/10/15 06:51:55;;;;;;;10.23;3.00;;;;;;;;;;5019399;28;20036;-62
2022/10/15 06:54:21;;;;;;;7.30;3.33;;;;;;;;;;5018923;28;20026;-62
2022/10/15 06:56:48;;;;;;;7.85;2.30;;;;;;;;;;5019800;28;20104;-62
2022/10/15 06:59:14;;;;;;;12.60;3.13;;;;;;;;;;5023793;28;20021;-62
2022/10/15 07:01:40;;;;;;;9.05;3.15;;;;;;;;;;5018148;28;20022;-62
2022/10/15 07:04:06;;;;;;;4.38;2.03;;;;;;;;;;5020432;28;20068;-62
2022/10/15 07:06:34;;;;;;;5.63;2.20;;;;;;;;;;5021074;28;20026;-62
2022/10/15 07:09:04;;;;;;;5.85;2.70;;;;;;;;;;5024177;28;20021;-62
2022/10/15 07:11:30;;;;;;;12.27;2.60;;;;;;;;;;5017204;28;20104;-62
2022/10/15 07:13:57;;;;;;;9.85;2.30;;;;;;;;;;5018449;28;20129;-62
2022/10/15 07:16:23;;;;;;;8.55;2.60;;;;;;;;;;5018790;28;20026;-62
2022/10/15 07:18:49;;;;;;;10.85;2.60;;;;;;;;;;5019457;28;20087;-62
2022/10/15 07:21:15;;;;;;;5.32;2.22;;;;;;;;;;5017428;28;20032;-62
2022/10/15 07:23:41;;;;;;;7.30;2.13;;;;;;;;;;5021257;28;20029;-62
2022/10/15 07:26:08;;;;;;;7.68;1.90;;;;;;;;;;5016510;28;20026;-62
2022/10/15 07:28:34;;;;;;;6.80;2.35;;;;;;;;;;5023249;28;20017;-62
2022/10/15 07:31:01;;;;;;;7.32;1.92;;;;;;;;;;5018134;28;20057;-62
2022/10/15 07:33:27;;;;;;;5.32;1.80;;;;;;;;;;5022982;28;20025;-62
2022/10/15 07:35:58;;;;;;;5.70;1.85;;;;;;;;;;5015839;28;20046;-62
2022/10/15 07:38:24;;;;;;;7.53;2.30;;;;;;;;;;5029851;28;20068;-62
2022/10/15 07:40:50;;;;;;;6.80;1.88;;;;;;;;;;5038897;28;20032;-62
2022/10/15 07:43:16;;;;;;;4.80;2.25;;;;;;;;;;5035181;28;20041;-62
2022/10/15 07:45:46;;;;;;;9.70;1.90;;;;;;;;;;5023127;28;20022;-62
2022/10/15 07:48:13;;;;;;;5.68;2.22;;;;;;;;;;5019311;28;20125;-62
2022/10/15 07:50:39;;;;;;;4.68;2.33;;;;;;;;;;5029220;28;20133;-62
2022/10/15 07:53:05;;;;;;;9.48;2.22;;;;;;;;;;5024843;28;20030;-62
2022/10/15 07:55:31;;;;;;;6.50;2.13;;;;;;;;;;5017460;28;20409;-62
2022/10/15 07:57:57;;;;;;;8.20;2.10;;;;;;;;;;5020626;28;20366;-62
2022/10/15 08:00:23;;;;;;;13.80;2.35;;;;;;;;;;5026058;28;20026;-62
2022/10/15 08:02:50;;;;;;;7.35;1.85;;;;;;;;;;5020340;28;20029;-62
2022/10/15 08:05:19;;;;;;;9.57;1.90;;;;;;;;;;5017611;28;20036;-62
2022/10/15 08:07:45;;;;;;;4.07;1.40;;;;;;;;;;5020258;28;20026;-62
2022/10/15 08:10:12;;;;;;;8.60;1.33;;;;;;;;;;5014104;28;20494;-62
2022/10/15 08:12:38;;;;;;;6.13;1.25;;;;;;;;;;5026026;28;20029;-62
2022/10/15 08:15:05;;;;;;;7.70;1.52;;;;;;;;;;5020066;28;20434;-62
2022/10/15 08:17:31;;;;;;;3.30;1.17;;;;;;;;;;5022919;28;20489;-62
2022/10/15 08:19:57;;;;;;;3.90;1.50;;;;;;;;;;5015518;28;20064;-62
2022/10/15 08:22:23;;;;;;;8.40;1.38;;;;;;;;;;5016305;28;20079;-62
2022/10/15 08:24:52;;;;;;;3.90;1.30;;;;;;;;;;5021421;28;20083;-62
2022/10/15 08:27:18;;;;;;;8.13;1.50;;;;;;;;;;5017360;28;20018;-62
2022/10/15 08:29:46;;;;;;;7.03;1.30;;;;;;;;;;5017655;28;20486;-62
2022/10/15 08:32:12;;;;;;;7.57;1.65;;;;;;;;;;5015807;28;20075;-62
2022/10/15 08:34:38;;;;;;;2.00;1.00;;;;;;;;;;5017862;28;20113;-62
2022/10/15 08:37:04;;;;;;;7.78;1.58;;;;;;;;;;5017782;28;20534;-62
2022/10/15 08:39:31;;;;;;;4.60;0.88;;;;;;;;;;5020358;28;20031;-62
2022/10/15 08:41:59;;;;;;;4.55;1.10;;;;;;;;;;5017645;28;20483;-62
2022/10/15 08:44:36;;;;;;;7.57;1.42;;;;;;;;;;5018359;28;20084;-63
2022/10/15 08:47:05;;;;;;;7.22;1.70;;;;;;;;;;5013076;28;20022;-62
2022/10/15 08:49:47;;;;;;;5.03;1.20;;;;;;;;;;5015575;28;20148;-62
2022/10/15 08:52:29;;;;;;;3.10;1.08;;;;;;;;;;5015280;28;20033;-62
2022/10/15 08:54:56;;;;;;;12.98;1.40;;;;;;;;;;5016846;28;20083;-62
2022/10/15 08:57:38;;;;;;;7.13;1.17;;;;;;;;;;5015375;28;20025;-62
2022/10/15 09:00:09;;;;;;;8.63;1.90;;;;;;;;;;5014233;28;20498;-63
2022/10/15 09:02:56;;;;;;;6.70;1.73;;;;;;;;;;5019571;28;20489;-62
2022/10/15 09:05:26;;;;;;;6.85;1.60;;;;;;;;;;5021581;28;20445;-62
2022/10/15 09:08:03;;;;;;;7.05;1.50;;;;;;;;;;5032643;28;20051;-62
2022/10/15 09:10:46;;;;;;;8.48;1.60;;;;;;;;;;5024816;28;20410;-63
2022/10/15 09:13:34;;;;;;;10.20;1.38;;;;;;;;;;5035097;28;20029;-62
2022/10/15 09:16:03;;;;;;;7.50;1.77;;;;;;;;;;5020523;28;20033;-64
2022/10/15 09:18:31;;;;;;;4.75;1.38;;;;;;;;;;5035180;28;20033;-62
2022/10/15 09:20:57;;;;;;;5.07;1.58;;;;;;;;;;5030601;28;20040;-62
2022/10/15 09:23:25;;;;;;;7.25;1.80;;;;;;;;;;5038340;28;20017;-62
2022/10/15 09:25:56;;;;;;;9.50;1.67;;;;;;;;;;5030903;28;20033;-62
2022/10/15 09:28:24;;;;;;;7.93;1.27;;;;;;;;;;5024992;28;20021;-63
2022/10/15 09:30:57;;;;;;;8.10;1.45;;;;;;;;;;5027466;28;20030;-63
2022/10/15 09:33:33;;;;;;;2.60;1.20;;;;;;;;;;5023881;28;20021;-63
2022/10/15 09:36:05;;;;;;;6.35;1.73;;;;;;;;;;5026443;28;20033;-63
2022/10/15 09:38:47;;;;;;;7.43;1.33;;;;;;;;;;5023746;28;20041;-63
2022/10/15 09:41:32;;;;;;;6.95;1.27;;;;;;;;;;5026625;28;20037;-63
2022/10/15 09:44:00;;;;;;;7.90;1.55;;;;;;;;;;5021554;28;20171;-63
2022/10/15 09:46:30;;;;;;;2.85;1.10;;;;;;;;;;5023775;28;20036;-63
2022/10/15 09:49:05;;;;;;;6.88;1.23;;;;;;;;;;5029834;28;20021;-63
2022/10/15 09:51:37;;;;;;;5.82;1.20;;;;;;;;;;5026140;28;20033;-63
2022/10/15 09:54:09;;;;;;;10.23;1.23;;;;;;;;;;5028668;28;20041;-63
2022/10/15 09:56:37;;;;;;;7.13;1.33;;;;;;;;;;5026481;28;20018;-63
2022/10/15 09:59:03;;;;;;;9.90;1.38;;;;;;;;;;5032222;28;20052;-63
2022/10/15 10:01:30;;;;;;;5.93;1.15;;;;;;;;;;5031907;28;20096;-63
2022/10/15 10:04:08;;;;;;;11.63;1.48;;;;;;;;;;5035155;28;20032;-63
2022/10/15 10:06:42;;;;;;;6.13;1.63;;;;;;;;;;5025948;28;20967;-63
2022/10/15 10:09:12;;;;;;;3.45;1.08;;;;;;;;;;5024712;28;20146;-63
2022/10/15 10:11:49;;;;;;;13.82;1.33;;;;;;;;;;5028044;28;20037;-63
2022/10/15 10:14:32;;;;;;;13.90;2.30;;;;;;;;;;5034747;28;20024;-63
2022/10/15 10:17:10;;;;;;;7.78;1.23;;;;;;;;;;5031478;28;20037;-63
2022/10/15 10:19:37;;;;;;;9.32;1.58;;;;;;;;;;5031027;28;20405;-63
2022/10/15 10:22:14;;;;;;;7.88;1.45;;;;;;;;;;5036820;28;20033;-63
2022/10/15 10:24:41;;;;;;;9.13;1.83;;;;;;;;;;5031876;28;20124;-63
2022/10/15 10:27:33;;;;;;;4.85;1.50;;;;;;;;;;5036921;28;20032;-63
2022/10/15 10:30:01;;;;;;;10.70;1.67;;;;;;;;;;5033377;28;20037;-63
2022/10/15 10:32:30;;;;;;;10.00;1.65;;;;;;;;;;5031480;28;20272;-63
2022/10/15 10:34:58;;;;;;;8.70;1.77;;;;;;;;;;5033103;28;20537;-63
2022/10/15 10:37:24;;;;;;;9.50;1.65;;;;;;;;;;5032415;28;20029;-63
2022/10/15 10:39:55;;;;;;;10.05;2.25;;;;;;;;;;5030460;28;20672;-63
2022/10/15 10:42:26;;;;;;;12.00;1.55;;;;;;;;;;5032352;28;20025;-63
2022/10/15 10:44:52;;;;;;;12.43;1.77;;;;;;;;;;5029436;28;20400;-63
2022/10/15 10:47:22;;;;;;;11.65;1.80;;;;;;;;;;5035301;28;20437;-63
2022/10/15 10:49:53;;;;;;;11.40;1.95;;;;;;;;;;5032912;28;20018;-62
2022/10/15 10:52:19;;;;;;;8.85;1.67;;;;;;;;;;5031534;28;20129;-63
2022/10/15 10:54:45;;;;;;;6.50;1.67;;;;;;;;;;5032909;28;20029;-63
2022/10/15 10:57:13;;;;;;;7.35;1.67;;;;;;;;;;5033647;28;20033;-63
2022/10/15 10:59:46;;;;;;;11.85;1.55;;;;;;;;;;5031316;28;20025;-63
2022/10/15 11:02:13;;;;;;;13.82;1.85;;;;;;;;;;5033351;28;20079;-63
2022/10/15 11:04:39;;;;;;;12.52;1.48;;;;;;;;;;5030149;28;20121;-63
2022/10/15 11:07:19;;;;;;;7.88;2.03;;;;;;;;;;5032193;28;20092;-63
2022/10/15 11:09:55;;;;;;;7.97;2.00;;;;;;;;;;5034898;28;20491;-62
2022/10/15 11:12:34;;;;;;;10.63;1.55;;;;;;;;;;5033149;28;20393;-63
2022/10/15 11:15:06;;;;;;;9.20;1.75;;;;;;;;;;5033510;28;20029;-62
2022/10/15 11:17:50;;;;;;;8.85;1.65;;;;;;;;;;5032414;28;20037;-62
2022/10/15 11:20:43;;;;;;;15.00;2.03;;;;;;;;;;5033751;28;20547;-63
2022/10/15 11:23:15;;;;;;;14.48;1.98;;;;;;;;;;5028593;28;20022;-63
2022/10/15 11:25:53;;;;;;;11.77;1.80;;;;;;;;;;5032065;28;20028;-63
2022/10/15 11:28:22;;;;;;;17.40;2.88;;;;;;;;;;5035468;28;20033;-62
2022/10/15 11:30:58;;;;;;;4.50;1.63;;;;;;;;;;5035686;28;20519;-63
2022/10/15 11:33:38;;;;;;;9.00;1.65;;;;;;;;;;5029544;28;20418;-62
2022/10/15 11:36:34;;;;;;;7.95;2.58;;;;;;;;;;5027771;28;20389;-62
2022/10/15 11:39:18;;;;;;;9.35;1.85;;;;;;;;;;5027767;28;20042;-62
2022/10/15 11:41:49;;;;;;;9.90;1.58;;;;;;;;;;5034559;28;20057;-62
2022/10/15 11:44:25;;;;;;;9.43;1.98;;;;;;;;;;5029354;28;20111;-62
2022/10/15 11:47:02;;;;;;;13.88;1.60;;;;;;;;;;5029484;28;22216;-65
2022/10/15 11:49:43;;;;;;;13.48;1.63;;;;;;;;;;5024821;28;20056;-63
2022/10/15 11:52:28;;;;;;;6.78;1.42;;;;;;;;;;5023684;28;20064;-63
2022/10/15 11:54:54;;;;;;;7.93;1.50;;;;;;;;;;5026041;28;20033;-62
2022/10/15 11:57:22;;;;;;;9.80;1.73;;;;;;;;;;5027929;28;20037;-63
2022/10/15 11:59:58;;;;;;;11.93;1.63;;;;;;;;;;5026913;28;20481;-63
2022/10/15 12:02:28;;;;;;;17.27;1.98;;;;;;;;;;5026524;28;20041;-63
2022/10/15 12:04:58;;;;;;;7.07;1.45;;;;;;;;;;5026745;28;20742;-63
2022/10/15 12:07:37;;;;;;;8.88;1.92;;;;;;;;;;5026973;28;20518;-63
2022/10/15 12:10:21;;;;;;;12.75;1.88;;;;;;;;;;5022194;28;20092;-63
2022/10/15 12:12:53;;;;;;;16.52;2.28;;;;;;;;;;5024539;28;20032;-63
2022/10/15 12:15:38;;;;;;;7.53;1.50;;;;;;;;;;5025525;28;20048;-62
2022/10/15 12:18:13;;;;;;;9.10;2.00;;;;;;;;;;5022352;28;20033;-62
2022/10/15 12:20:41;;;;;;;13.70;1.80;;;;;;;;;;5018972;28;20419;-63
2022/10/15 12:23:21;;;;;;;12.02;1.88;;;;;;;;;;5025773;28;20026;-63
2022/10/15 12:25:47;;;;;;;10.40;2.75;;;;;;;;;;5026518;28;20456;-62
2022/10/15 12:28:16;;;;;;;14.57;2.65;;;;;;;;;;5022702;28;20051;-62
2022/10/15 12:30:49;;;;;;;10.93;1.85;;;;;;;;;;5024160;28;20032;-62
2022/10/15 12:33:24;;;;;;;11.70;2.47;;;;;;;;;;5022846;28;20057;-62
2022/10/15 12:35:55;;;;;;;15.25;1.67;;;;;;;;;;5024846;28;20504;-62
2022/10/15 12:38:29;;;;;;;15.02;1.88;;;;;;;;;;5017607;28;20482;-62
2022/10/15 12:41:15;;;;;;;13.48;1.75;;;;;;;;;;5024299;28;20033;-62
2022/10/15 12:43:44;;;;;;;11.77;2.72;;;;;;;;;;5019281;28;20160;-62
2022/10/15 12:46:10;;;;;;;11.48;2.08;;;;;;;;;;5016538;28;20040;-62
2022/10/15 12:48:41;;;;;;;9.50;1.20;;;;;;;;;;5026617;28;20025;-62
2022/10/15 12:51:16;;;;;;;10.13;1.77;;;;;;;;;;5022803;28;20018;-62
2022/10/15 12:53:43;;;;;;;6.28;1.70;;;;;;;;;;5021931;28;20029;-62
2022/10/15 12:56:09;;;;;;;9.48;1.83;;;;;;;;;;5025404;28;21550;-62
2022/10/15 12:58:46;;;;;;;6.10;1.95;;;;;;;;;;5020853;28;20041;-62
2022/10/15 13:01:12;;;;;;;;;;;;;;;;;;5032251;28;20025;-62
2022/10/15 13:03:50;;;;;;;8.68;1.73;;;;;;;;;;5022960;28;19916;-62
2022/10/15 13:06:19;;;;;;;14.23;2.08;;;;;;;;;;5027315;28;20090;-62
2022/10/15 13:08:48;;;;;;;10.90;1.88;;;;;;;;;;5019507;28;20044;-62
2022/10/15 13:11:20;;;;;;;15.88;2.78;;;;;;;;;;5020701;28;20107;-62
2022/10/15 13:13:46;;;;;;;9.70;1.98;;;;;;;;;;5021385;28;20045;-62
2022/10/15 13:16:13;;;;;;;12.73;2.30;;;;;;;;;;5020401;28;20026;-62
2022/10/15 13:18:41;;;;;;;12.82;1.70;;;;;;;;;;5024801;28;20053;-62
2022/10/15 13:21:07;;;;;;;10.40;2.35;;;;;;;;;;5021042;28;20032;-62
2022/10/15 13:23:34;;;;;;;10.23;1.77;;;;;;;;;;5022222;28;20431;-66
2022/10/15 13:26:12;;;;;;;15.32;2.47;;;;;;;;;;5022765;28;20087;-62
2022/10/15 13:28:40;;;;;;;7.47;1.70;;;;;;;;;;5021112;28;20029;-61
2022/10/15 13:31:08;;;;;;;14.65;2.17;;;;;;;;;;5024846;28;20029;-62
2022/10/15 13:33:39;;;;;;;12.32;1.90;;;;;;;;;;5021687;28;20034;-61
2022/10/15 13:36:06;;;;;;;15.30;2.83;;;;;;;;;;5023679;28;20017;-61
2022/10/15 13:38:39;;;;;;;17.25;1.88;;;;;;;;;;5030589;28;20542;-61
2022/10/15 13:41:05;;;;;;;14.77;2.08;;;;;;;;;;5021104;28;20037;-61
2022/10/15 13:43:31;;;;;;;9.57;2.10;;;;;;;;;;5024303;28;20046;-61
2022/10/15 13:45:58;;;;;;;13.48;1.95;;;;;;;;;;5020984;28;20080;-61
2022/10/15 13:48:26;;;;;;;13.88;2.05;;;;;;;;;;5026808;28;20030;-61
2022/10/15 13:50:59;;;;;;;9.23;2.58;;;;;;;;;;5019761;28;20030;-61
2022/10/15 13:53:36;;;;;;;14.60;2.10;;;;;;;;;;5023917;28;20462;-61
2022/10/15 13:56:04;;;;;;;16.45;2.75;;;;;;;;;;5025428;28;20042;-61
2022/10/15 13:58:32;;;;;;;14.73;2.33;;;;;;;;;;5022574;28;20034;-61
2022/10/15 14:01:19;;;;;;;12.88;2.00;;;;;;;;;;5024509;28;20457;-61
2022/10/15 14:03:48;;;;;;;20.83;3.60;;;;;;;;;;5023191;28;20026;-61
2022/10/15 14:06:14;;;;;;;13.35;3.05;;;;;;;;;;5024679;28;20022;-61
2022/10/15 14:08:40;;;;;;;14.32;2.22;;;;;;;;;;5024284;28;20033;-61
2022/10/15 14:11:06;;;;;;;10.73;1.98;;;;;;;;;;5021333;28;20085;-61
2022/10/15 14:13:34;;;;;;;11.50;1.58;;;;;;;;;;5023097;28;20070;-61
2022/10/15 14:16:18;;;;;;;16.80;2.40;;;;;;;;;;5022389;28;20048;-61
2022/10/15 14:18:46;;;;;;;11.90;1.83;;;;;;;;;;5020121;28;20029;-61
2022/10/15 14:21:13;;;;;;;6.18;1.33;;;;;;;;;;5033164;28;20026;-61
2022/10/15 14:23:40;;;;;;;7.55;1.45;;;;;;;;;;5023974;28;20045;-61
2022/10/15 14:26:07;;;;;;;9.57;1.75;;;;;;;;;;5020054;28;20022;-61
2022/10/15 14:28:34;;;;;;;9.02;1.50;;;;;;;;;;5019569;28;20037;-61
2022/10/15 14:31:01;;;;;;;9.07;2.25;;;;;;;;;;5024706;28;20049;-61
2022/10/15 14:33:37;;;;;;;12.95;2.47;;;;;;;;;;5026601;28;20041;-61
2022/10/15 14:36:23;;;;;;;5.30;0.90;;;;;;;;;;5027320;28;20036;-61
2022/10/15 14:38:51;;;;;;;8.23;1.50;;;;;;;;;;5026786;28;20018;-61
2022/10/15 14:41:27;;;;;;;5.45;1.35;;;;;;;;;;5022079;28;20061;-62
2022/10/15 14:44:02;;;;;;;8.43;2.03;;;;;;;;;;5019097;28;20017;-61
2022/10/15 14:46:36;;;;;;;8.25;1.33;;;;;;;;;;5021249;28;20511;-61
2022/10/15 14:49:02;;;;;;;7.10;1.90;;;;;;;;;;5021629;28;20133;-61
2022/10/15 14:51:28;;;;;;;9.77;2.38;;;;;;;;;;5026436;28;20026;-61
2022/10/15 14:53:55;;;;;;;10.23;2.83;;;;;;;;;;5019210;28;20026;-61
2022/10/15 14:56:23;;;;;;;10.18;2.92;;;;;;;;;;5017847;28;20022;-61
2022/10/15 14:58:52;;;;;;;8.10;2.15;;;;;;;;;;5022099;28;20453;-61